logo
App data

8Bit Fiesta - Party Game

8Bit Fiesta brings everything you need to the table with its action packed local multiplayer mayhem including a built in drinking game! Choose between a ton of characters and challenge your friends and prove yourself worthy the title "King of the Fiesta".
Store | Hub | SteamDB | Site
Developer: Linus Fredriksson Publisher: Frozen Dev
Genre: Action, Casual, Free to Play, Indie
Languages: English
Tags: Action (49), Indie (49), Casual (47), Free to Play (41), Local Multiplayer (36), 4 Player Local (35), Local Co-Op (20), Split Screen (20), Dark Humor (20), Controller (19), Pixel Graphics (19), Comedy (18), Early Access (13), Platformer (7)
Category: Single-player, Multi-player, PvP, Shared/Split Screen PvP, Co-op, Shared/Split Screen Co-op, Shared/Split Screen, Steam Achievements, Full controller support, Steam Trading Cards, Steam Leaderboards, Remote Play Together
Release date: Sep 30, 2016 (previously in Early Access)
Free
Old userscore: 92% Owners: 0 .. 20,000
Followers: 0
Peak concurrent players yesterday: 6
Playtime total: 08:20 (average) 08:27 (median)

Steam Spy is still in beta, so expect major bugs.

Owners data:

Access restricted.

This feature is only available to users with special access rights. Sorry.

If you want to proceed, you need to register or log in first and then back Steam Spy on Patreon. Look for Indie or Pro pledge.

Don't forget to use the same email as on Steam Spy!

Audience in 2 weeks:

Access restricted.

This feature is only available to users with special access rights. Sorry.

If you want to proceed, you need to register or log in first and then back Steam Spy on Patreon. Look for Indie or Pro pledge.

Don't forget to use the same email as on Steam Spy!

Peak daily concurrent players:

CCU data courtesy of SteamDB. Used with permission.

Hourly concurrent players:

Daily Twitch stats:

Hourly Twitch stats:

Followers over time

Access restricted.

This feature is only available to users with special access rights. Sorry.

If you want to proceed, you need to register or log in first and then back Steam Spy on Patreon. Look for Indie or Pro pledge.

Don't forget to use the same email as on Steam Spy!

Views for top 50 videos on YouTube for this game:

Games similar to this one:

# Game Release date
Price
Score rank
(Userscore / Metascore)
Owners
Players
Playtime (Median)
1 Intensive Exposure Sep 6, 2016 $4.99N/A (N/A)0 .. 20,0000%00:00 (00:00)
2 Wayout Nov 4, 2016 $0.99N/A (N/A)50,000 .. 100,0000%00:00 (00:00)
3 It Comes Around - A Kinetic Novel Sep 29, 2016 $2.99N/A (N/A)20,000 .. 50,0000%00:00 (00:00)
4 Witch It May 31, 2017 $14.99N/A (N/A)200,000 .. 500,0006.9%01:49 (01:12)
5 Starship Annihilator Sep 2, 2016 $0.99N/A (N/A)50,000 .. 100,0000%00:00 (00:00)
6 Introvert Quest Mar 15, 2017 $4.99N/A (N/A)100,000 .. 200,0000%00:00 (00:00)
7 The Gleam: VR Escape the Room Oct 14, 2016 $3.99N/A (N/A)100,000 .. 200,0000%00:00 (00:00)
8 Distant Space Dec 20, 2016 $0.49N/A (N/A)50,000 .. 100,0000%00:00 (00:00)
9 Please, Don't Touch Anything 3D Dec 7, 2016 $9.99N/A (N/A)20,000 .. 50,0000%00:00 (00:00)
10 Robot Legions Reborn Jul 19, 2016 $2.99N/A (N/A)20,000 .. 50,0000%00:00 (00:00)
11 mr.President Prologue Episode Sep 20, 2016 $0.99N/A (N/A)20,000 .. 50,0000%00:00 (00:00)
12 You Deserve Aug 19, 2016 $0.99N/A (N/A)20,000 .. 50,0000%00:00 (00:00)
13 BoomTown! Deluxe Oct 14, 2016 $1.99N/A (N/A)20,000 .. 50,0000%00:00 (00:00)
14 Dinosaur Forest May 17, 2017 $1.99N/A (N/A)50,000 .. 100,0000%00:00 (00:00)
15 Pixel Gladiator Sep 8, 2017 $4.99N/A (N/A)20,000 .. 50,0000%00:00 (00:00)
16 Joana's Life Sep 1, 2016 $5.99N/A (N/A)50,000 .. 100,0000%00:00 (00:00)
17 Snake Pass Mar 28, 2017 $19.99N/A (N/A/71%)100,000 .. 200,0000%00:00 (00:00)
18 Tomb of Tyrants Jun 25, 2015 $7.99N/A (N/A)20,000 .. 50,0000%00:00 (00:00)
19 Phoenix Force Nov 13, 2014 $0.99N/A (N/A)50,000 .. 100,0000%00:00 (00:00)
20 On A Roll 3D Feb 12, 2015 $3.99N/A (N/A)50,000 .. 100,0000%00:00 (00:00)
21 Dwarf Tower May 5, 2014 $0.99N/A (N/A)20,000 .. 50,0000%00:00 (00:00)
22 Glorkian Warrior: The Trials Of Glork Mar 24, 2015 $3.99N/A (N/A)20,000 .. 50,0000%00:00 (00:00)
23 Sky Mercenaries Dec 16, 2014 $9.99N/A (N/A)20,000 .. 50,0000%00:00 (00:00)
24 Countless Rooms of Death Jan 9, 2015 $0.99N/A (N/A)20,000 .. 50,0000%00:00 (00:00)
25 Chronicles of a Dark Lord: Episode 1 Tides of Fate Complete Dec 19, 2014 $0.99N/A (N/A)50,000 .. 100,0000%00:00 (00:00)
26 Ninja Pizza Girl Sep 30, 2015 $6.99N/A (N/A/82%)50,000 .. 100,0000%00:00 (00:00)
27 Four Sided Fantasy Aug 30, 2016 $9.99N/A (N/A)0 .. 20,0000%00:00 (00:00)
28 iO Dec 5, 2014 $4.99N/A (N/A)50,000 .. 100,0000%00:00 (00:00)
29 Bermuda Mar 17, 2015 $2.99N/A (N/A)50,000 .. 100,0000%00:00 (00:00)
30 Horizon Shift May 29, 2015 $1.49N/A (N/A)100,000 .. 200,0000%00:00 (00:00)
31 Ukrainian Ninja Dec 23, 2014 FreeN/A (N/A)20,000 .. 50,0000%00:00 (00:00)
32 Instant Dungeon! Nov 25, 2014 $1.99N/A (N/A)0 .. 20,0000%00:00 (00:00)
33 TIMEframe Jul 7, 2015 $5.99N/A (N/A)50,000 .. 100,0000%00:00 (00:00)
34 The Deer God Feb 27, 2015 $14.99N/A (N/A/59%)20,000 .. 50,0000%00:00 (00:00)
35 BIT.TRIP CORE Oct 2, 2012 $9.99N/A (N/A)20,000 .. 50,0000%00:00 (00:00)
36 Papo & Yo Apr 18, 2013 $14.99N/A (N/A/70%)200,000 .. 500,0000%00:00 (00:00)
37 BIT.TRIP VOID Dec 19, 2012 $9.99N/A (N/A)20,000 .. 50,0000%00:00 (00:00)
38 Dream Jul 31, 2015 $8.99N/A (N/A/59%)20,000 .. 50,0000%00:00 (00:00)
39 Tales From Space: Mutant Blobs Attack Aug 15, 2012 $9.99N/A (N/A/83%)100,000 .. 200,0000%00:00 (00:00)
40 Bad Hotel Oct 16, 2013 $4.99N/A (N/A)50,000 .. 100,0000%00:00 (00:00)
41 Unmechanical Aug 8, 2012 $9.99N/A (N/A/74%)100,000 .. 200,0000%00:00 (00:00)
42 Godus N/AN/A (N/A)50,000 .. 100,0000%00:00 (00:00)
43 Sugar Cube: Bittersweet Factory Nov 7, 2012 $6.99N/A (N/A)20,000 .. 50,0000%00:00 (00:00)
44 Critter Crunch Sep 11, 2012 $6.99N/A (N/A)20,000 .. 50,0000%00:00 (00:00)
45 Home Aug 31, 2012 $4.99N/A (N/A/69%)200,000 .. 500,0000%00:00 (00:00)
46 BIT.TRIP BEAT Nov 2, 2010 $9.99N/A (N/A)200,000 .. 500,0000%00:00 (00:00)
47 Ultratron Mar 18, 2013 $9.99N/A (N/A)50,000 .. 100,0000%00:00 (00:00)
48 SOL: Exodus Jan 25, 2012 $7.99N/A (N/A/57%)50,000 .. 100,0000%00:00 (00:00)
49 Cargo Commander Nov 1, 2012 $2.99N/A (N/A)100,000 .. 200,0000%00:00 (00:00)
50 Titan Attacks! Feb 3, 2012 $9.99N/A (N/A)100,000 .. 200,0000%00:00 (00:00)
51 Puddle Nov 9, 2012 $7.99N/A (N/A)50,000 .. 100,0000%00:00 (00:00)
52 Guns of Icarus Alliance Mar 31, 2017 $4.99N/A (N/A)50,000 .. 100,0000%00:00 (00:00)
53 The Archotek Project Apr 28, 2017 $4.99N/A (N/A)200,000 .. 500,0000%00:00 (00:00)
54 Child Phobia: Nightcoming Fears Dec 20, 2016 $1.99N/A (N/A)20,000 .. 50,0000%00:00 (00:00)
55 Mistwood Heroes Dec 30, 2016 $0.99N/A (N/A)20,000 .. 50,0000%00:00 (00:00)
56 GORN Jul 18, 2019 $19.99N/A (N/A/85%)200,000 .. 500,00016.67%01:00 (00:59)
57 Monolith Jun 7, 2017 $7.99N/A (N/A/83%)50,000 .. 100,0000%00:00 (00:00)
58 Hare In The Hat Apr 1, 2015 $1.99N/A (N/A)20,000 .. 50,0000%00:00 (00:00)
59 Porcunipine May 21, 2015 $9.99N/A (N/A)20,000 .. 50,0000%00:00 (00:00)
60 Spellsworn Mar 13, 2018 FreeN/A (N/A)100,000 .. 200,0000%00:00 (00:00)
61 Star Horizon May 28, 2015 $4.99N/A (N/A)20,000 .. 50,0000%00:00 (00:00)
62 Luna Sky Oct 2, 2015 $12.99N/A (N/A)50,000 .. 100,0000%00:00 (00:00)
63 Bunker - The Underground Game May 21, 2015 $3.99N/A (N/A/70%)0 .. 20,0000%00:00 (00:00)
64 Interstellar Rift Jun 23, 2015 $18.99N/A (N/A)20,000 .. 50,0000%00:00 (00:00)
65 Centauri Sector Jun 23, 2015 $4.99N/A (N/A)20,000 .. 50,0000%00:00 (00:00)
66 It came from space and ate our brains Mar 19, 2015 $14.99N/A (N/A)50,000 .. 100,00012.5%00:25 (00:12)
67 Beyond Eyes Aug 11, 2015 $14.99N/A (N/A/60%)100,000 .. 200,0000%00:00 (00:00)
68 Three Fourths Home: Extended Edition Mar 20, 2015 $4.99N/A (N/A/77%)20,000 .. 50,0000%00:00 (00:00)
69 Big Action Mega Fight! Jan 12, 2016 $1.99N/A (N/A)20,000 .. 50,0000%00:00 (00:00)
70 The Cursed Forest Feb 26, 2019 $13.99N/A (N/A)0 .. 20,0000%00:00 (00:00)
71 Gryphon Knight Epic Aug 20, 2015 $6.99N/A (N/A/55%)20,000 .. 50,0000%00:00 (00:00)
72 Rats - Time is running out! Aug 19, 2015 $4.99N/A (N/A)50,000 .. 100,0000%00:00 (00:00)
73 Canabalt Apr 30, 2015 $2.99N/A (N/A)20,000 .. 50,0000%00:00 (00:00)
74 Scribble Space Jun 1, 2015 $1.99N/A (N/A)20,000 .. 50,0000%00:00 (00:00)
75 Stray Cat Crossing Aug 28, 2015 $2.99N/A (N/A)20,000 .. 50,0000%00:00 (00:00)
76 Monument Jun 5, 2015 $3.99N/A (N/A)20,000 .. 50,0000%00:00 (00:00)
77 Super Trench Attack 2 Nov 6, 2015 $4.99N/A (N/A)20,000 .. 50,0000%00:00 (00:00)
78 Western Press Apr 21, 2016 $4.99N/A (N/A)20,000 .. 50,0000%00:00 (00:00)
79 Redemption: Eternal Quest Aug 28, 2015 $1.99N/A (N/A)100,000 .. 200,0000%00:00 (00:00)
80 Fortify Apr 8, 2016 $4.99N/A (N/A)0 .. 20,0000%00:00 (00:00)
81 Blaster Shooter GunGuy! Aug 10, 2015 $1.99N/A (N/A)50,000 .. 100,0000%00:00 (00:00)
82 Action Alien Jun 26, 2015 $3.99N/A (N/A)50,000 .. 100,0000%00:00 (00:00)
83 Pixel Star May 22, 2015 $2.99N/A (N/A)20,000 .. 50,0000%00:00 (00:00)
84 Mu Complex Oct 23, 2015 $8.99N/A (N/A)0 .. 20,0000%00:00 (00:00)
85 Season of 12 Colors Mar 14, 2016 $2.99N/A (N/A)20,000 .. 50,0000%00:00 (00:00)
86 Dead In Bermuda Aug 27, 2015 $14.99N/A (N/A)20,000 .. 50,0000%00:00 (00:00)
87 Impossiball Aug 8, 2017 $0.99N/A (N/A)0 .. 20,0000%00:00 (00:00)
88 Aviary Attorney Dec 21, 2015 $14.99N/A (N/A/77%)50,000 .. 100,0000%00:00 (00:00)
89 Pizza Express Jun 25, 2015 $6.99N/A (N/A)20,000 .. 50,0000%00:00 (00:00)
90 none Nov 4, 2015 N/AN/A (N/A)20,000 .. 50,0000%00:00 (00:00)
91 The Adventures of Mr. Bobley Jul 1, 2015 $0.99N/A (N/A)50,000 .. 100,0000%00:00 (00:00)
92 Escape Goat 2 Mar 24, 2014 $9.99N/A (N/A/76%)50,000 .. 100,0000%00:00 (00:00)
93 Knytt Underground Oct 25, 2013 $6.99N/A (N/A)50,000 .. 100,0000%00:00 (00:00)
94 Signal Ops Nov 18, 2013 $9.99N/A (N/A/61%)0 .. 20,0000%00:00 (00:00)
95 Escape Goat Oct 9, 2013 $4.99N/A (N/A)20,000 .. 50,0000%00:00 (00:00)
96 Survivor Squad Jan 21, 2015 $2.99N/A (N/A)100,000 .. 200,0000%00:00 (00:00)
97 Gravity Ghost Jan 26, 2015 $14.99N/A (N/A/75%)0 .. 20,0000%00:00 (00:00)
98 Ballpoint Universe - Infinite Dec 17, 2013 $3.99N/A (N/A)50,000 .. 100,0000%00:00 (00:00)
99 Constant C Mar 11, 2014 $9.99N/A (N/A/60%)0 .. 20,0000%00:00 (00:00)
100 Wake $4.99N/A (N/A)0 .. 20,0000%00:00 (00:00)
101 Solar Flux Oct 24, 2013 $9.99N/A (N/A)100,000 .. 200,0000%00:00 (00:00)
102 Element4l May 24, 2013 $8.99N/A (N/A/77%)50,000 .. 100,0000%00:00 (00:00)
103 Maia Nov 23, 2018 $24.99N/A (N/A)50,000 .. 100,0000%00:00 (00:00)
104 Super Puzzle Platformer Deluxe May 24, 2013 $7.99N/A (N/A)50,000 .. 100,0000%00:00 (00:00)
105 FOTONICA Nov 6, 2014 $14.99N/A (N/A/71%)50,000 .. 100,0000%00:00 (00:00)
106 Poöf Nov 8, 2013 $6.99N/A (N/A)20,000 .. 50,0000%00:00 (00:00)
107 Gentlemen! Nov 5, 2013 $4.99N/A (N/A)20,000 .. 50,0000%00:00 (00:00)
108 The Novelist Dec 10, 2013 $4.99N/A (N/A/66%)100,000 .. 200,0000%00:00 (00:00)
109 PERFECT ANGLE: The puzzle game based on optical illusions Dec 22, 2015 $9.99N/A (N/A)50,000 .. 100,0000%00:00 (00:00)
110 Press X to Not Die Oct 6, 2017 $2.99N/A (N/A)50,000 .. 100,0000%00:00 (00:00)
111 IMSCARED Feb 3, 2016 $3.99N/A (N/A)20,000 .. 50,0000%00:00 (00:00)
112 1,000 Heads Among the Trees Dec 11, 2015 $4.99N/A (N/A)100,000 .. 200,0000%00:00 (00:00)
113 Doodle Kingdom Jun 9, 2016 $8.99N/A (N/A)20,000 .. 50,0000%00:00 (00:00)
114 Morphine Oct 28, 2015 $2.99N/A (N/A)20,000 .. 50,0000%00:00 (00:00)
115 10 Second Ninja X Jul 19, 2016 $9.99N/A (N/A)20,000 .. 50,0000%00:00 (00:00)
116 Days Under Custody Nov 23, 2015 $4.99N/A (N/A)20,000 .. 50,0000%00:00 (00:00)
117 Wild Island Quest Sep 4, 2015 $0.49N/A (N/A)50,000 .. 100,0000%00:00 (00:00)
118 Heavy Gear Assault Feb 10, 2017 $39.99N/A (N/A)0 .. 20,0000%00:00 (00:00)
119 Shmadow Nov 3, 2015 $1.99N/A (N/A)20,000 .. 50,0000%00:00 (00:00)
120 Cosmic Leap Mar 17, 2016 $0.99N/A (N/A)0 .. 20,0000%00:00 (00:00)
121 Moonbase 332 Sep 18, 2015 $4.99N/A (N/A)20,000 .. 50,0000%00:00 (00:00)
122 Godus Wars Feb 3, 2016 $14.99N/A (N/A)50,000 .. 100,0000%00:00 (00:00)
123 Kitchen Simulator 2015 Sep 2, 2015 $0.99N/A (N/A)20,000 .. 50,0000%00:00 (00:00)
124 Bell Ringer Mar 18, 2016 $6.99N/A (N/A)100,000 .. 200,0000%00:00 (00:00)
125 ChargeShot Sep 18, 2015 $9.99N/A (N/A)20,000 .. 50,0000%00:00 (00:00)
126 Starship Corporation May 3, 2018 $19.99N/A (N/A)50,000 .. 100,0000%00:00 (00:00)
127 Pulstar Jun 11, 2014 $1.99N/A (N/A)20,000 .. 50,0000%00:00 (00:00)
128 Uriel's Chasm Sep 12, 2014 $4.99N/A (N/A)200,000 .. 500,0000%00:00 (00:00)
129 Imagine Earth May 2014 $19.99N/A (N/A)0 .. 20,0000%00:00 (00:00)
130 Cosmochoria Apr 27, 2015 $9.99N/A (N/A)20,000 .. 50,0000%00:00 (00:00)
131 Munin Jun 10, 2014 $4.99N/A (N/A/68%)100,000 .. 200,0000%00:00 (00:00)
132 Road Not Taken Aug 5, 2014 $14.99N/A (N/A/75%)50,000 .. 100,0000%00:00 (00:00)
133 Rabbit Hole 3D: Steam Edition Apr 25, 2014 $2.99N/A (N/A)50,000 .. 100,0000%00:00 (00:00)
134 Journal Feb 17, 2014 $9.99N/A (N/A/59%)20,000 .. 50,0000%00:00 (00:00)
135 ReignMaker Apr 16, 2014 $14.99N/A (N/A)50,000 .. 100,0000%00:00 (00:00)
136 STARWHAL Sep 29, 2014 $11.99N/A (N/A)50,000 .. 100,0000%00:00 (00:00)
137 Actual Sunlight Apr 3, 2014 $4.99N/A (N/A/77%)20,000 .. 50,0000%00:00 (00:00)
138 Montas Mar 24, 2014 $9.99N/A (N/A)20,000 .. 50,0000%00:00 (00:00)
139 Slip Apr 28, 2014 $0.99N/A (N/A)20,000 .. 50,0000%00:00 (00:00)
140 Jones On Fire Mar 27, 2015 $2.99N/A (N/A)50,000 .. 100,0000%00:00 (00:00)
141 Three Dead Zed Jul 7, 2014 $5.99N/A (N/A)50,000 .. 100,0000%00:00 (00:00)
142 Labyrinthine Dreams May 26, 2015 $1.99N/A (N/A)50,000 .. 100,0000%00:00 (00:00)
143 Hero Quest: Tower Conflict Apr 13, 2016 $0.49N/A (N/A)100,000 .. 200,0000%00:00 (00:00)
144 Star Drifter Jun 1, 2016 $0.99N/A (N/A)200,000 .. 500,0000%00:00 (00:00)
145 CrazyCars3D Mar 28, 2016 $2.99N/A (N/A)50,000 .. 100,0000%00:00 (00:00)
146 Call Of The Mighty Warriors Mar 1, 2019 $0.99N/A (N/A)20,000 .. 50,0000%00:00 (00:00)
147 Mainlining Jan 26, 2017 $2.59N/A (N/A/73%)20,000 .. 50,0000%00:00 (00:00)
148 Super Duper Party Pooper Jun 6, 2016 $0.99N/A (N/A/40%)100,000 .. 200,0000%00:00 (00:00)
149 Wrath of Anna Apr 2, 2018 $19.99N/A (N/A)50,000 .. 100,0000%00:00 (00:00)
150 DashBored Jun 13, 2016 $4.99N/A (N/A)20,000 .. 50,0000%00:00 (00:00)
151 Snooker Nation Championship Apr 27, 2016 $3.99N/A (N/A)0 .. 20,0000%00:00 (00:00)
152 Empire of the Gods May 13, 2008 $1.99N/A (N/A)20,000 .. 50,0000%00:00 (00:00)
153 NORTH Apr 27, 2016 $1.99N/A (N/A)200,000 .. 500,0000%00:00 (00:00)
154 Mindless Running Feb 18, 2016 $0.99N/A (N/A)50,000 .. 100,0000%00:00 (00:00)
155 New Retro Arcade: Neon Nov 19, 2019 $19.99N/A (N/A)20,000 .. 50,0000%00:00 (00:00)
156 Bunker Punks May 28, 2018 $4.49N/A (N/A)0 .. 20,0000%00:00 (00:00)
157 Scanner Sombre Apr 26, 2017 $5.99N/A (N/A/67%)100,000 .. 200,0000%00:00 (00:00)
158 Cube Land Arena Mar 8, 2019 $0.99N/A (N/A)20,000 .. 50,0000%00:00 (00:00)
159 Reflection of Mine Feb 24, 2017 $7.99N/A (N/A)0 .. 20,0000%00:00 (00:00)
160 Velocibox Sep 8, 2014 $4.99N/A (N/A)50,000 .. 100,0007.69%00:05 (00:01)
161 Echo of the Wilds Jun 10, 2014 $8.99N/A (N/A)20,000 .. 50,0000%00:00 (00:00)
162 Squishy the Suicidal Pig Oct 23, 2014 $5.99N/A (N/A)200,000 .. 500,0000%00:00 (00:00)
163 Iron Fisticle Sep 16, 2014 $8.99N/A (N/A)20,000 .. 50,0000%00:00 (00:00)
164 Great Permutator Sep 15, 2014 $6.99N/A (N/A)20,000 .. 50,0000%00:00 (00:00)
165 Fancy Skulls Jun 16, 2014 $8.99N/A (N/A)20,000 .. 50,0000%00:00 (00:00)
166 Chariot Nov 12, 2014 $14.99N/A (N/A/76%)50,000 .. 100,0000%00:00 (00:00)
167 Back to Bed Aug 6, 2014 $5.99N/A (N/A)500,000 .. 1,000,0000%00:00 (00:00)
168 Stranded May 20, 2014 $0.99N/A (N/A)20,000 .. 50,0000%00:00 (00:00)
169 NEON STRUCT May 20, 2015 $17.99N/A (N/A/62%)20,000 .. 50,0000%00:00 (00:00)
170 Dreaming Sarah Mar 12, 2015 $0.59N/A (N/A)100,000 .. 200,0000%00:00 (00:00)
171 The Masterplan Jun 4, 2015 $19.99N/A (N/A/68%)100,000 .. 200,0000%00:00 (00:00)
172 Frederic: Resurrection of Music May 16, 2014 $0.5N/A (N/A)100,000 .. 200,0000%00:00 (00:00)
173 Amazing Princess Sarah Aug 18, 2014 $4.99N/A (N/A)0 .. 20,0000%00:00 (00:00)
174 Frederic: Evil Strikes Back May 23, 2014 $0.79N/A (N/A)100,000 .. 200,0000%00:00 (00:00)
175 A City Sleeps Oct 16, 2014 $9.99N/A (N/A)20,000 .. 50,0000%00:00 (00:00)
176 Rhythm Destruction Jun 16, 2014 $4.99N/A (N/A)50,000 .. 100,0000%00:00 (00:00)

Tags over time:

Access restricted.

This feature is only available to users with special access rights. Sorry.

If you want to proceed, you need to register or log in first and then back Steam Spy on Patreon. Look for Indie or Pro pledge.

Don't forget to use the same email as on Steam Spy!

Owners of this game also own:

Access restricted.

This feature is only available to users with special access rights. Sorry.

If you want to proceed, you need to register or log in first and then back Steam Spy on Patreon. Look for Indie or Pro pledge.

Don't forget to use the same email as on Steam Spy!

Playtime distribution:

Access restricted.

This feature is only available to users with special access rights. Sorry.

If you want to proceed, you need to register or log in first and then back Steam Spy on Patreon. Look for Indie or Pro pledge.

Don't forget to use the same email as on Steam Spy!

Playtime (2 weeks):

Access restricted.

This feature is only available to users with special access rights. Sorry.

If you want to proceed, you need to register or log in first and then back Steam Spy on Patreon. Look for Indie or Pro pledge.

Don't forget to use the same email as on Steam Spy!

User reviews:

Login required.

Please register or log in to see this information.